Aviation Digital Data Service (ADDS)

Output produced by METARs form (0436 UTC 18 October 2018)
found at http://aviationweather.gov/metar/data/
 
METAR text: KRNT 180353Z AUTO 00000KT 10SM CLR 12/08 A3010 RMK AO2 SLP196 T01220078
Conditions at: KRNT (RENTON , WA, US) observed 0353 UTC 18 October 2018
Temperature: 12.2°C (54°F)
Dewpoint: 7.8°C (46°F) [RH = 74%]
Pressure (altimeter): 30.10 inches Hg (1019.4 mb)
[Sea-level pressure: 1019.6 mb]
Winds: calm
Visibility: 10 or more miles (16+ km)
Ceiling: at least 12,000 feet AGL
Clouds: sky clear below 12,000 feet AGL
Weather: automated observation with no human augmentation;
there may or may not be significant weather present at this time

METAR text: KRNT 180253Z 00000KT 10SM CLR 14/08 A3010 RMK AO2 SLP197 T01390078 53008
Conditions at: KRNT (RENTON , WA, US) observed 0253 UTC 18 October 2018
Temperature: 13.9°C (57°F)
Dewpoint: 7.8°C (46°F) [RH = 67%]
Pressure (altimeter): 30.10 inches Hg (1019.4 mb)
[Sea-level pressure: 1019.7 mb]
Winds: calm
Visibility: 10 or more miles (16+ km)
Ceiling: at least 12,000 feet AGL
Clouds: sky clear below 12,000 feet AGL
Weather: no significant weather observed at this time